sensor_id;sensor_type;location;lat;lon;timestamp;temperature;humidity
11647;DHT22;5880;52.342;9.662;2023-05-03T00:00:54;8.70;49.90
11647;DHT22;5880;52.342;9.662;2023-05-03T00:03:20;8.70;50.00
11647;DHT22;5880;52.342;9.662;2023-05-03T00:05:48;8.70;50.10
11647;DHT22;5880;52.342;9.662;2023-05-03T00:08:14;8.70;50.10
11647;DHT22;5880;52.342;9.662;2023-05-03T00:10:40;8.70;50.20
11647;DHT22;5880;52.342;9.662;2023-05-03T00:13:05;8.70;50.30
11647;DHT22;5880;52.342;9.662;2023-05-03T00:15:32;8.70;50.30
11647;DHT22;5880;52.342;9.662;2023-05-03T00:17:57;8.60;50.30
11647;DHT22;5880;52.342;9.662;2023-05-03T00:20:23;8.60;50.30
11647;DHT22;5880;52.342;9.662;2023-05-03T00:22:49;8.60;50.40
11647;DHT22;5880;52.342;9.662;2023-05-03T00:25:15;8.60;50.40
11647;DHT22;5880;52.342;9.662;2023-05-03T00:27:41;8.60;50.40
11647;DHT22;5880;52.342;9.662;2023-05-03T00:30:07;8.50;50.20
11647;DHT22;5880;52.342;9.662;2023-05-03T00:32:34;8.50;50.40
11647;DHT22;5880;52.342;9.662;2023-05-03T00:35:00;8.50;50.20
11647;DHT22;5880;52.342;9.662;2023-05-03T00:37:26;8.50;50.10
11647;DHT22;5880;52.342;9.662;2023-05-03T00:39:52;8.40;50.20
11647;DHT22;5880;52.342;9.662;2023-05-03T00:42:18;8.40;50.40
11647;DHT22;5880;52.342;9.662;2023-05-03T00:44:43;8.30;50.40
11647;DHT22;5880;52.342;9.662;2023-05-03T00:47:09;8.30;50.40
11647;DHT22;5880;52.342;9.662;2023-05-03T00:49:35;8.30;50.30
11647;DHT22;5880;52.342;9.662;2023-05-03T00:52:01;8.20;50.30
11647;DHT22;5880;52.342;9.662;2023-05-03T00:54:27;8.20;50.40
11647;DHT22;5880;52.342;9.662;2023-05-03T00:56:57;8.20;50.50
11647;DHT22;5880;52.342;9.662;2023-05-03T00:59:23;8.10;50.70
11647;DHT22;5880;52.342;9.662;2023-05-03T01:01:51;8.10;50.40
11647;DHT22;5880;52.342;9.662;2023-05-03T01:04:18;8.10;50.70
11647;DHT22;5880;52.342;9.662;2023-05-03T01:09:32;8.00;51.30
11647;DHT22;5880;52.342;9.662;2023-05-03T01:12:19;8.00;51.60
11647;DHT22;5880;52.342;9.662;2023-05-03T01:18:02;7.90;51.70
11647;DHT22;5880;52.342;9.662;2023-05-03T01:20:36;7.80;51.60
11647;DHT22;5880;52.342;9.662;2023-05-03T01:23:34;7.80;50.90
11647;DHT22;5880;52.342;9.662;2023-05-03T01:28:49;7.80;50.90
11647;DHT22;5880;52.342;9.662;2023-05-03T01:31:35;7.70;50.40
11647;DHT22;5880;52.342;9.662;2023-05-03T01:37:16;7.70;51.60
11647;DHT22;5880;52.342;9.662;2023-05-03T01:40:02;7.60;50.70
11647;DHT22;5880;52.342;9.662;2023-05-03T01:42:41;7.60;52.10
11647;DHT22;5880;52.342;9.662;2023-05-03T01:45:08;7.60;50.70
11647;DHT22;5880;52.342;9.662;2023-05-03T01:47:35;7.50;51.00
11647;DHT22;5880;52.342;9.662;2023-05-03T01:50:01;7.60;51.10
11647;DHT22;5880;52.342;9.662;2023-05-03T01:52:26;7.50;51.30
11647;DHT22;5880;52.342;9.662;2023-05-03T01:54:52;7.50;51.40
11647;DHT22;5880;52.342;9.662;2023-05-03T01:57:18;7.50;51.50
11647;DHT22;5880;52.342;9.662;2023-05-03T01:59:43;7.70;51.70
11647;DHT22;5880;52.342;9.662;2023-05-03T02:02:09;7.50;51.70
11647;DHT22;5880;52.342;9.662;2023-05-03T02:04:34;7.50;51.70
11647;DHT22;5880;52.342;9.662;2023-05-03T02:07:00;7.50;51.30
11647;DHT22;5880;52.342;9.662;2023-05-03T02:09:26;7.40;51.20
11647;DHT22;5880;52.342;9.662;2023-05-03T02:11:51;7.40;51.40
11647;DHT22;5880;52.342;9.662;2023-05-03T02:14:17;7.40;51.40
11647;DHT22;5880;52.342;9.662;2023-05-03T02:16:43;7.40;51.40
11647;DHT22;5880;52.342;9.662;2023-05-03T02:19:08;7.40;51.60
11647;DHT22;5880;52.342;9.662;2023-05-03T02:21:36;7.30;51.80
11647;DHT22;5880;52.342;9.662;2023-05-03T02:24:02;7.30;51.80
11647;DHT22;5880;52.342;9.662;2023-05-03T02:26:28;7.30;51.80
11647;DHT22;5880;52.342;9.662;2023-05-03T02:28:53;7.30;51.90
11647;DHT22;5880;52.342;9.662;2023-05-03T02:31:21;7.30;52.10
11647;DHT22;5880;52.342;9.662;2023-05-03T02:33:46;7.30;52.20
11647;DHT22;5880;52.342;9.662;2023-05-03T02:36:14;7.30;52.20
11647;DHT22;5880;52.342;9.662;2023-05-03T02:38:40;7.30;52.20
11647;DHT22;5880;52.342;9.662;2023-05-03T02:41:06;7.30;52.20
11647;DHT22;5880;52.342;9.662;2023-05-03T02:43:32;7.30;52.20
11647;DHT22;5880;52.342;9.662;2023-05-03T02:45:57;7.30;52.20
11647;DHT22;5880;52.342;9.662;2023-05-03T02:48:23;7.30;52.30
11647;DHT22;5880;52.342;9.662;2023-05-03T02:50:49;7.30;52.50
11647;DHT22;5880;52.342;9.662;2023-05-03T02:53:15;7.40;52.40
11647;DHT22;5880;52.342;9.662;2023-05-03T02:55:41;7.40;52.50
11647;DHT22;5880;52.342;9.662;2023-05-03T02:58:07;7.30;52.50
11647;DHT22;5880;52.342;9.662;2023-05-03T03:00:34;7.30;52.50
11647;DHT22;5880;52.342;9.662;2023-05-03T03:03:00;7.40;52.60
11647;DHT22;5880;52.342;9.662;2023-05-03T03:05:25;7.40;53.00
11647;DHT22;5880;52.342;9.662;2023-05-03T03:07:51;7.40;52.30
11647;DHT22;5880;52.342;9.662;2023-05-03T03:10:17;7.40;52.40
11647;DHT22;5880;52.342;9.662;2023-05-03T03:12:42;7.40;52.30
11647;DHT22;5880;52.342;9.662;2023-05-03T03:15:09;7.40;52.30
11647;DHT22;5880;52.342;9.662;2023-05-03T03:17:35;7.40;52.40
11647;DHT22;5880;52.342;9.662;2023-05-03T03:20:05;7.40;52.30
11647;DHT22;5880;52.342;9.662;2023-05-03T03:22:32;7.40;52.50
11647;DHT22;5880;52.342;9.662;2023-05-03T03:24:57;7.40;52.30
11647;DHT22;5880;52.342;9.662;2023-05-03T03:27:23;7.40;52.20
11647;DHT22;5880;52.342;9.662;2023-05-03T03:29:49;7.40;52.40
11647;DHT22;5880;52.342;9.662;2023-05-03T03:32:15;7.30;52.40
11647;DHT22;5880;52.342;9.662;2023-05-03T03:34:40;7.30;52.30
11647;DHT22;5880;52.342;9.662;2023-05-03T03:37:06;7.30;52.30
11647;DHT22;5880;52.342;9.662;2023-05-03T03:39:32;7.30;52.40
11647;DHT22;5880;52.342;9.662;2023-05-03T03:41:57;7.30;52.40
11647;DHT22;5880;52.342;9.662;2023-05-03T03:44:24;7.20;52.30
11647;DHT22;5880;52.342;9.662;2023-05-03T03:46:49;7.20;52.30
11647;DHT22;5880;52.342;9.662;2023-05-03T03:49:15;7.20;52.40
11647;DHT22;5880;52.342;9.662;2023-05-03T03:51:41;7.20;52.50
11647;DHT22;5880;52.342;9.662;2023-05-03T03:54:06;7.20;52.60
11647;DHT22;5880;52.342;9.662;2023-05-03T03:56:32;7.20;52.60
11647;DHT22;5880;52.342;9.662;2023-05-03T03:58:58;7.20;52.60
11647;DHT22;5880;52.342;9.662;2023-05-03T04:01:23;7.20;52.70
11647;DHT22;5880;52.342;9.662;2023-05-03T04:03:49;7.10;52.80
11647;DHT22;5880;52.342;9.662;2023-05-03T04:06:14;7.20;52.80
11647;DHT22;5880;52.342;9.662;2023-05-03T04:08:40;7.10;52.90
11647;DHT22;5880;52.342;9.662;2023-05-03T04:11:10;7.20;53.10
11647;DHT22;5880;52.342;9.662;2023-05-03T04:13:36;7.10;53.70
11647;DHT22;5880;52.342;9.662;2023-05-03T04:16:03;7.10;53.30
11647;DHT22;5880;52.342;9.662;2023-05-03T04:18:30;7.10;53.60
11647;DHT22;5880;52.342;9.662;2023-05-03T04:20:56;7.10;53.40
11647;DHT22;5880;52.342;9.662;2023-05-03T04:23:21;7.10;53.50
11647;DHT22;5880;52.342;9.662;2023-05-03T04:25:47;7.20;53.60
11647;DHT22;5880;52.342;9.662;2023-05-03T04:28:13;7.20;53.70
11647;DHT22;5880;52.342;9.662;2023-05-03T04:30:39;7.20;53.50
11647;DHT22;5880;52.342;9.662;2023-05-03T04:33:08;7.20;53.60
11647;DHT22;5880;52.342;9.662;2023-05-03T04:35:33;7.20;53.70
11647;DHT22;5880;52.342;9.662;2023-05-03T04:37:59;7.20;53.60
11647;DHT22;5880;52.342;9.662;2023-05-03T04:40:25;7.20;53.60
11647;DHT22;5880;52.342;9.662;2023-05-03T04:42:51;7.30;53.70
11647;DHT22;5880;52.342;9.662;2023-05-03T04:45:17;7.20;53.70
11647;DHT22;5880;52.342;9.662;2023-05-03T04:47:43;7.20;54.00
11647;DHT22;5880;52.342;9.662;2023-05-03T04:50:09;7.30;54.20
11647;DHT22;5880;52.342;9.662;2023-05-03T04:52:35;7.30;54.30
11647;DHT22;5880;52.342;9.662;2023-05-03T04:55:01;7.30;54.50
11647;DHT22;5880;52.342;9.662;2023-05-03T04:57:27;7.40;54.70
11647;DHT22;5880;52.342;9.662;2023-05-03T04:59:53;7.40;54.80
11647;DHT22;5880;52.342;9.662;2023-05-03T05:02:19;7.50;55.10
11647;DHT22;5880;52.342;9.662;2023-05-03T05:04:45;7.60;55.30
11647;DHT22;5880;52.342;9.662;2023-05-03T05:07:11;7.70;55.40
11647;DHT22;5880;52.342;9.662;2023-05-03T05:09:38;7.80;55.50
11647;DHT22;5880;52.342;9.662;2023-05-03T05:12:04;7.80;55.90
11647;DHT22;5880;52.342;9.662;2023-05-03T05:14:30;8.00;57.00
11647;DHT22;5880;52.342;9.662;2023-05-03T05:16:56;8.20;57.70
11647;DHT22;5880;52.342;9.662;2023-05-03T05:19:22;8.40;58.10
11647;DHT22;5880;52.342;9.662;2023-05-03T05:21:48;8.60;58.20
11647;DHT22;5880;52.342;9.662;2023-05-03T05:24:15;8.90;58.30
11647;DHT22;5880;52.342;9.662;2023-05-03T05:26:41;9.20;58.10
11647;DHT22;5880;52.342;9.662;2023-05-03T05:29:07;9.40;57.60
11647;DHT22;5880;52.342;9.662;2023-05-03T05:31:33;9.60;57.70
11647;DHT22;5880;52.342;9.662;2023-05-03T05:34:00;9.80;57.20
11647;DHT22;5880;52.342;9.662;2023-05-03T05:36:26;10.10;57.90
11647;DHT22;5880;52.342;9.662;2023-05-03T05:38:52;10.30;59.10
11647;DHT22;5880;52.342;9.662;2023-05-03T05:41:18;10.60;60.50
11647;DHT22;5880;52.342;9.662;2023-05-03T05:43:43;11.10;62.40
11647;DHT22;5880;52.342;9.662;2023-05-03T05:46:09;11.60;63.70
11647;DHT22;5880;52.342;9.662;2023-05-03T05:48:35;12.20;64.60
11647;DHT22;5880;52.342;9.662;2023-05-03T05:51:01;12.90;66.00
11647;DHT22;5880;52.342;9.662;2023-05-03T05:53:27;13.60;65.50
11647;DHT22;5880;52.342;9.662;2023-05-03T05:55:53;14.40;65.30
11647;DHT22;5880;52.342;9.662;2023-05-03T05:58:19;15.20;64.70
11647;DHT22;5880;52.342;9.662;2023-05-03T06:00:44;15.90;64.10
11647;DHT22;5880;52.342;9.662;2023-05-03T06:03:13;16.70;62.90
11647;DHT22;5880;52.342;9.662;2023-05-03T06:05:40;17.40;61.00
11647;DHT22;5880;52.342;9.662;2023-05-03T06:08:06;18.00;60.00
11647;DHT22;5880;52.342;9.662;2023-05-03T06:10:32;18.70;58.50
11647;DHT22;5880;52.342;9.662;2023-05-03T06:12:58;19.30;57.20
11647;DHT22;5880;52.342;9.662;2023-05-03T06:15:23;19.90;56.30
11647;DHT22;5880;52.342;9.662;2023-05-03T06:17:50;20.40;55.10
11647;DHT22;5880;52.342;9.662;2023-05-03T06:20:16;21.00;53.50
11647;DHT22;5880;52.342;9.662;2023-05-03T06:22:42;21.40;51.80
11647;DHT22;5880;52.342;9.662;2023-05-03T06:25:08;21.80;50.30
11647;DHT22;5880;52.342;9.662;2023-05-03T06:27:34;22.30;49.60
11647;DHT22;5880;52.342;9.662;2023-05-03T06:30:01;22.80;48.70
11647;DHT22;5880;52.342;9.662;2023-05-03T06:32:27;23.00;47.40
11647;DHT22;5880;52.342;9.662;2023-05-03T06:34:52;23.30;46.10
11647;DHT22;5880;52.342;9.662;2023-05-03T06:37:18;23.60;44.50
11647;DHT22;5880;52.342;9.662;2023-05-03T06:39:44;23.90;43.20
11647;DHT22;5880;52.342;9.662;2023-05-03T06:42:09;24.00;41.80
11647;DHT22;5880;52.342;9.662;2023-05-03T06:44:35;24.20;41.70
11647;DHT22;5880;52.342;9.662;2023-05-03T06:47:01;24.30;41.50
11647;DHT22;5880;52.342;9.662;2023-05-03T06:49:26;24.50;41.40
11647;DHT22;5880;52.342;9.662;2023-05-03T06:51:52;24.60;39.50
11647;DHT22;5880;52.342;9.662;2023-05-03T06:54:18;24.60;38.70
11647;DHT22;5880;52.342;9.662;2023-05-03T06:56:44;24.60;37.90
11647;DHT22;5880;52.342;9.662;2023-05-03T06:59:10;24.60;37.50
11647;DHT22;5880;52.342;9.662;2023-05-03T07:01:36;24.50;37.30
11647;DHT22;5880;52.342;9.662;2023-05-03T07:04:02;24.50;36.90
11647;DHT22;5880;52.342;9.662;2023-05-03T07:06:27;24.30;36.20
11647;DHT22;5880;52.342;9.662;2023-05-03T07:08:53;24.20;36.10
11647;DHT22;5880;52.342;9.662;2023-05-03T07:11:20;24.10;35.70
11647;DHT22;5880;52.342;9.662;2023-05-03T07:13:52;24.10;35.70
11647;DHT22;5880;52.342;9.662;2023-05-03T07:16:19;24.00;35.10
11647;DHT22;5880;52.342;9.662;2023-05-03T07:18:46;23.90;34.80
11647;DHT22;5880;52.342;9.662;2023-05-03T07:21:13;24.10;33.70
11647;DHT22;5880;52.342;9.662;2023-05-03T07:23:40;23.80;34.00
11647;DHT22;5880;52.342;9.662;2023-05-03T07:26:06;23.70;34.60
11647;DHT22;5880;52.342;9.662;2023-05-03T07:28:32;23.70;34.80
11647;DHT22;5880;52.342;9.662;2023-05-03T07:30:58;23.70;34.60
11647;DHT22;5880;52.342;9.662;2023-05-03T07:33:24;23.80;34.60
11647;DHT22;5880;52.342;9.662;2023-05-03T07:35:50;23.90;34.50
11647;DHT22;5880;52.342;9.662;2023-05-03T07:38:16;23.80;32.50
11647;DHT22;5880;52.342;9.662;2023-05-03T07:40:43;23.60;32.70
11647;DHT22;5880;52.342;9.662;2023-05-03T07:43:09;23.20;31.20
11647;DHT22;5880;52.342;9.662;2023-05-03T07:45:35;22.80;30.70
11647;DHT22;5880;52.342;9.662;2023-05-03T07:48:01;22.30;30.50
11647;DHT22;5880;52.342;9.662;2023-05-03T07:50:28;21.80;30.50
11647;DHT22;5880;52.342;9.662;2023-05-03T07:52:55;21.40;30.50
11647;DHT22;5880;52.342;9.662;2023-05-03T07:55:21;21.00;30.40
11647;DHT22;5880;52.342;9.662;2023-05-03T07:57:47;20.60;30.70
11647;DHT22;5880;52.342;9.662;2023-05-03T08:00:14;20.20;31.00
11647;DHT22;5880;52.342;9.662;2023-05-03T08:02:42;20.00;31.50
11647;DHT22;5880;52.342;9.662;2023-05-03T08:05:09;19.70;31.70
11647;DHT22;5880;52.342;9.662;2023-05-03T08:07:38;19.50;32.30
11647;DHT22;5880;52.342;9.662;2023-05-03T08:10:04;19.30;32.70
11647;DHT22;5880;52.342;9.662;2023-05-03T08:12:30;19.20;33.00
11647;DHT22;5880;52.342;9.662;2023-05-03T08:14:56;19.80;33.30
11647;DHT22;5880;52.342;9.662;2023-05-03T08:17:22;19.00;33.10
11647;DHT22;5880;52.342;9.662;2023-05-03T08:19:48;18.90;33.20
11647;DHT22;5880;52.342;9.662;2023-05-03T08:22:16;18.80;33.70
11647;DHT22;5880;52.342;9.662;2023-05-03T08:24:42;17.90;32.40
11647;DHT22;5880;52.342;9.662;2023-05-03T08:27:08;18.70;32.40
11647;DHT22;5880;52.342;9.662;2023-05-03T08:29:35;18.60;33.10
11647;DHT22;5880;52.342;9.662;2023-05-03T08:32:04;18.50;33.30
11647;DHT22;5880;52.342;9.662;2023-05-03T08:34:30;18.40;33.40
11647;DHT22;5880;52.342;9.662;2023-05-03T08:36:56;18.30;33.50
11647;DHT22;5880;52.342;9.662;2023-05-03T08:39:23;18.20;33.50
11647;DHT22;5880;52.342;9.662;2023-05-03T08:41:50;18.00;33.50
11647;DHT22;5880;52.342;9.662;2023-05-03T08:44:20;17.90;33.80
11647;DHT22;5880;52.342;9.662;2023-05-03T08:46:48;17.90;33.90
11647;DHT22;5880;52.342;9.662;2023-05-03T08:49:16;17.80;34.30
11647;DHT22;5880;52.342;9.662;2023-05-03T08:51:43;17.80;34.00
11647;DHT22;5880;52.342;9.662;2023-05-03T08:54:14;17.80;33.50
11647;DHT22;5880;52.342;9.662;2023-05-03T08:56:42;17.80;33.90
11647;DHT22;5880;52.342;9.662;2023-05-03T08:59:10;18.00;33.80
11647;DHT22;5880;52.342;9.662;2023-05-03T09:01:39;17.70;34.00
11647;DHT22;5880;52.342;9.662;2023-05-03T09:04:07;17.70;34.00
11647;DHT22;5880;52.342;9.662;2023-05-03T09:06:34;17.80;34.10
11647;DHT22;5880;52.342;9.662;2023-05-03T09:09:02;17.70;34.40
11647;DHT22;5880;52.342;9.662;2023-05-03T09:11:32;17.60;34.20
11647;DHT22;5880;52.342;9.662;2023-05-03T09:14:12;17.60;34.60
11647;DHT22;5880;52.342;9.662;2023-05-03T09:16:41;17.60;34.50
11647;DHT22;5880;52.342;9.662;2023-05-03T09:19:12;17.50;34.80
11647;DHT22;5880;52.342;9.662;2023-05-03T09:21:40;17.60;34.70
11647;DHT22;5880;52.342;9.662;2023-05-03T09:24:20;17.60;34.50
11647;DHT22;5880;52.342;9.662;2023-05-03T09:26:48;17.60;34.20
11647;DHT22;5880;52.342;9.662;2023-05-03T09:29:32;17.60;34.10
11647;DHT22;5880;52.342;9.662;2023-05-03T09:32:03;17.60;34.30
11647;DHT22;5880;52.342;9.662;2023-05-03T09:34:31;17.70;35.10
11647;DHT22;5880;52.342;9.662;2023-05-03T09:36:58;17.80;34.60
11647;DHT22;5880;52.342;9.662;2023-05-03T09:39:23;17.80;33.70
11647;DHT22;5880;52.342;9.662;2023-05-03T09:41:49;17.80;33.50
11647;DHT22;5880;52.342;9.662;2023-05-03T09:44:18;17.70;33.50
11647;DHT22;5880;52.342;9.662;2023-05-03T09:47:03;17.80;33.30
11647;DHT22;5880;52.342;9.662;2023-05-03T09:49:31;17.90;32.60
11647;DHT22;5880;52.342;9.662;2023-05-03T09:51:58;17.80;34.00
11647;DHT22;5880;52.342;9.662;2023-05-03T09:54:25;17.80;33.90
11647;DHT22;5880;52.342;9.662;2023-05-03T09:56:53;17.80;33.30
11647;DHT22;5880;52.342;9.662;2023-05-03T09:59:19;17.80;33.60
11647;DHT22;5880;52.342;9.662;2023-05-03T10:01:46;17.70;33.30
11647;DHT22;5880;52.342;9.662;2023-05-03T10:04:14;17.70;32.60
11647;DHT22;5880;52.342;9.662;2023-05-03T10:06:46;17.60;33.90
11647;DHT22;5880;52.342;9.662;2023-05-03T10:09:20;17.60;33.50
11647;DHT22;5880;52.342;9.662;2023-05-03T10:11:52;17.50;33.40
11647;DHT22;5880;52.342;9.662;2023-05-03T10:14:21;17.40;33.40
11647;DHT22;5880;52.342;9.662;2023-05-03T10:16:56;17.40;33.70
11647;DHT22;5880;52.342;9.662;2023-05-03T10:19:32;17.30;33.70
11647;DHT22;5880;52.342;9.662;2023-05-03T10:22:07;17.20;33.30
11647;DHT22;5880;52.342;9.662;2023-05-03T10:24:36;17.20;33.50
11647;DHT22;5880;52.342;9.662;2023-05-03T10:27:22;17.20;34.10
11647;DHT22;5880;52.342;9.662;2023-05-03T10:29:51;17.10;34.40
11647;DHT22;5880;52.342;9.662;2023-05-03T10:35:08;17.10;33.90
11647;DHT22;5880;52.342;9.662;2023-05-03T10:37:39;17.20;33.90
11647;DHT22;5880;52.342;9.662;2023-05-03T10:40:11;17.20;33.60
11647;DHT22;5880;52.342;9.662;2023-05-03T10:42:48;17.20;33.90
11647;DHT22;5880;52.342;9.662;2023-05-03T10:45:25;17.20;33.60
11647;DHT22;5880;52.342;9.662;2023-05-03T10:50:40;17.10;33.60
11647;DHT22;5880;52.342;9.662;2023-05-03T10:53:06;17.10;33.70
11647;DHT22;5880;52.342;9.662;2023-05-03T10:55:33;17.10;33.90
11647;DHT22;5880;52.342;9.662;2023-05-03T10:57:59;17.00;34.10
11647;DHT22;5880;52.342;9.662;2023-05-03T11:00:38;17.00;34.20
11647;DHT22;5880;52.342;9.662;2023-05-03T11:05:49;17.00;34.00
11647;DHT22;5880;52.342;9.662;2023-05-03T11:08:21;17.00;34.30
11647;DHT22;5880;52.342;9.662;2023-05-03T11:10:48;17.00;34.60
11647;DHT22;5880;52.342;9.662;2023-05-03T11:13:21;17.00;34.60
11647;DHT22;5880;52.342;9.662;2023-05-03T11:15:47;17.10;34.50
11647;DHT22;5880;52.342;9.662;2023-05-03T11:18:13;17.10;34.60
11647;DHT22;5880;52.342;9.662;2023-05-03T11:20:39;17.10;34.30
11647;DHT22;5880;52.342;9.662;2023-05-03T11:23:05;17.10;34.40
11647;DHT22;5880;52.342;9.662;2023-05-03T11:25:32;17.20;34.00
11647;DHT22;5880;52.342;9.662;2023-05-03T11:27:59;17.20;34.20
11647;DHT22;5880;52.342;9.662;2023-05-03T11:30:27;17.20;34.20
11647;DHT22;5880;52.342;9.662;2023-05-03T11:32:54;17.20;33.90
11647;DHT22;5880;52.342;9.662;2023-05-03T11:35:20;17.20;33.30
11647;DHT22;5880;52.342;9.662;2023-05-03T11:37:50;17.10;33.40
11647;DHT22;5880;52.342;9.662;2023-05-03T11:40:16;17.10;33.50
11647;DHT22;5880;52.342;9.662;2023-05-03T11:42:50;17.10;33.50
11647;DHT22;5880;52.342;9.662;2023-05-03T11:45:21;17.10;32.90
11647;DHT22;5880;52.342;9.662;2023-05-03T11:47:49;17.10;33.50
11647;DHT22;5880;52.342;9.662;2023-05-03T11:50:16;17.10;32.20
11647;DHT22;5880;52.342;9.662;2023-05-03T11:52:43;17.00;32.10
11647;DHT22;5880;52.342;9.662;2023-05-03T11:55:10;17.00;32.70
11647;DHT22;5880;52.342;9.662;2023-05-03T11:57:37;17.00;32.90
11647;DHT22;5880;52.342;9.662;2023-05-03T12:00:10;17.00;33.40
11647;DHT22;5880;52.342;9.662;2023-05-03T12:02:47;17.00;33.20
11647;DHT22;5880;52.342;9.662;2023-05-03T12:05:13;17.00;33.70
11647;DHT22;5880;52.342;9.662;2023-05-03T12:07:40;17.10;33.90
11647;DHT22;5880;52.342;9.662;2023-05-03T12:10:13;17.10;32.30
11647;DHT22;5880;52.342;9.662;2023-05-03T12:12:55;17.10;33.20
11647;DHT22;5880;52.342;9.662;2023-05-03T12:15:30;17.10;32.10
11647;DHT22;5880;52.342;9.662;2023-05-03T12:18:08;17.10;31.90
11647;DHT22;5880;52.342;9.662;2023-05-03T12:20:36;17.10;33.00
11647;DHT22;5880;52.342;9.662;2023-05-03T12:23:05;17.10;33.50
11647;DHT22;5880;52.342;9.662;2023-05-03T12:25:36;17.10;33.50
11647;DHT22;5880;52.342;9.662;2023-05-03T12:28:06;17.10;33.30
11647;DHT22;5880;52.342;9.662;2023-05-03T12:30:32;17.10;33.10
11647;DHT22;5880;52.342;9.662;2023-05-03T12:32:59;17.10;33.40
11647;DHT22;5880;52.342;9.662;2023-05-03T12:35:25;17.10;33.40
11647;DHT22;5880;52.342;9.662;2023-05-03T12:37:50;17.20;32.20
11647;DHT22;5880;52.342;9.662;2023-05-03T12:40:17;17.20;33.70
11647;DHT22;5880;52.342;9.662;2023-05-03T12:42:52;17.20;32.10
11647;DHT22;5880;52.342;9.662;2023-05-03T12:45:18;17.30;32.90
11647;DHT22;5880;52.342;9.662;2023-05-03T12:47:44;17.30;33.10
11647;DHT22;5880;52.342;9.662;2023-05-03T12:50:10;17.40;33.20
11647;DHT22;5880;52.342;9.662;2023-05-03T12:52:36;17.40;33.10
11647;DHT22;5880;52.342;9.662;2023-05-03T12:55:05;17.40;33.50
11647;DHT22;5880;52.342;9.662;2023-05-03T12:57:32;17.40;33.30
11647;DHT22;5880;52.342;9.662;2023-05-03T12:59:58;17.50;33.50
11647;DHT22;5880;52.342;9.662;2023-05-03T13:02:24;17.40;33.40
11647;DHT22;5880;52.342;9.662;2023-05-03T13:04:50;17.60;33.40
11647;DHT22;5880;52.342;9.662;2023-05-03T13:07:22;17.50;33.40
11647;DHT22;5880;52.342;9.662;2023-05-03T13:09:49;17.60;33.70
11647;DHT22;5880;52.342;9.662;2023-05-03T13:12:16;17.60;33.90
11647;DHT22;5880;52.342;9.662;2023-05-03T13:14:48;17.70;33.90
11647;DHT22;5880;52.342;9.662;2023-05-03T13:17:15;17.70;33.30
11647;DHT22;5880;52.342;9.662;2023-05-03T13:19:42;17.80;33.30
11647;DHT22;5880;52.342;9.662;2023-05-03T13:22:12;17.80;33.50
11647;DHT22;5880;52.342;9.662;2023-05-03T13:24:39;17.90;33.70
11647;DHT22;5880;52.342;9.662;2023-05-03T13:27:06;17.90;33.30
11647;DHT22;5880;52.342;9.662;2023-05-03T13:29:32;18.00;33.80
11647;DHT22;5880;52.342;9.662;2023-05-03T13:31:58;18.00;33.10
11647;DHT22;5880;52.342;9.662;2023-05-03T13:34:23;18.10;33.80
11647;DHT22;5880;52.342;9.662;2023-05-03T13:36:49;18.10;33.70
11647;DHT22;5880;52.342;9.662;2023-05-03T13:39:15;18.10;33.50
11647;DHT22;5880;52.342;9.662;2023-05-03T13:41:41;18.20;33.40
11647;DHT22;5880;52.342;9.662;2023-05-03T13:44:08;18.20;33.50
11647;DHT22;5880;52.342;9.662;2023-05-03T13:46:34;18.20;33.10
11647;DHT22;5880;52.342;9.662;2023-05-03T13:49:06;18.30;33.50
11647;DHT22;5880;52.342;9.662;2023-05-03T13:51:33;18.30;33.60
11647;DHT22;5880;52.342;9.662;2023-05-03T13:54:00;18.30;33.50
11647;DHT22;5880;52.342;9.662;2023-05-03T13:56:27;18.20;33.50
11647;DHT22;5880;52.342;9.662;2023-05-03T13:58:54;18.20;33.80
11647;DHT22;5880;52.342;9.662;2023-05-03T14:01:22;18.20;33.80
11647;DHT22;5880;52.342;9.662;2023-05-03T14:03:49;18.20;33.60
11647;DHT22;5880;52.342;9.662;2023-05-03T14:06:15;18.20;33.50
11647;DHT22;5880;52.342;9.662;2023-05-03T14:08:41;18.00;33.20
11647;DHT22;5880;52.342;9.662;2023-05-03T14:11:17;18.30;33.30
11647;DHT22;5880;52.342;9.662;2023-05-03T14:13:43;18.30;33.30
11647;DHT22;5880;52.342;9.662;2023-05-03T14:16:16;18.40;33.40
11647;DHT22;5880;52.342;9.662;2023-05-03T14:18:50;18.40;33.00
11647;DHT22;5880;52.342;9.662;2023-05-03T14:21:17;18.50;33.00
11647;DHT22;5880;52.342;9.662;2023-05-03T14:23:44;18.50;33.20
11647;DHT22;5880;52.342;9.662;2023-05-03T14:26:11;18.50;33.00
11647;DHT22;5880;52.342;9.662;2023-05-03T14:28:37;18.60;33.00
11647;DHT22;5880;52.342;9.662;2023-05-03T14:31:03;18.60;33.20
11647;DHT22;5880;52.342;9.662;2023-05-03T14:33:31;18.60;32.70
11647;DHT22;5880;52.342;9.662;2023-05-03T14:35:57;18.60;32.70
11647;DHT22;5880;52.342;9.662;2023-05-03T14:38:23;18.70;32.30
11647;DHT22;5880;52.342;9.662;2023-05-03T14:40:50;18.70;32.90
11647;DHT22;5880;52.342;9.662;2023-05-03T14:43:18;18.70;32.80
11647;DHT22;5880;52.342;9.662;2023-05-03T14:45:44;18.70;32.90
11647;DHT22;5880;52.342;9.662;2023-05-03T14:48:10;18.70;32.80
11647;DHT22;5880;52.342;9.662;2023-05-03T14:50:36;18.70;32.80
11647;DHT22;5880;52.342;9.662;2023-05-03T14:53:02;18.70;32.50
11647;DHT22;5880;52.342;9.662;2023-05-03T14:55:28;18.70;32.50
11647;DHT22;5880;52.342;9.662;2023-05-03T14:57:54;18.70;32.00
11647;DHT22;5880;52.342;9.662;2023-05-03T15:00:19;18.70;32.20
11647;DHT22;5880;52.342;9.662;2023-05-03T15:02:45;18.70;32.50
11647;DHT22;5880;52.342;9.662;2023-05-03T15:05:12;18.70;32.60
11647;DHT22;5880;52.342;9.662;2023-05-03T15:07:38;18.70;32.70
11647;DHT22;5880;52.342;9.662;2023-05-03T15:10:05;18.60;32.70
11647;DHT22;5880;52.342;9.662;2023-05-03T15:12:31;18.60;32.70
11647;DHT22;5880;52.342;9.662;2023-05-03T15:14:57;18.70;32.80
11647;DHT22;5880;52.342;9.662;2023-05-03T15:17:23;18.70;32.60
11647;DHT22;5880;52.342;9.662;2023-05-03T15:19:49;18.70;32.80
11647;DHT22;5880;52.342;9.662;2023-05-03T15:22:17;18.70;32.80
11647;DHT22;5880;52.342;9.662;2023-05-03T15:24:43;18.70;32.50
11647;DHT22;5880;52.342;9.662;2023-05-03T15:27:08;18.70;32.80
11647;DHT22;5880;52.342;9.662;2023-05-03T15:29:34;18.60;32.80
11647;DHT22;5880;52.342;9.662;2023-05-03T15:32:00;18.60;32.70
11647;DHT22;5880;52.342;9.662;2023-05-03T15:34:26;18.60;32.80
11647;DHT22;5880;52.342;9.662;2023-05-03T15:36:53;18.60;32.70
11647;DHT22;5880;52.342;9.662;2023-05-03T15:39:20;18.60;33.00
11647;DHT22;5880;52.342;9.662;2023-05-03T15:41:46;18.50;33.00
11647;DHT22;5880;52.342;9.662;2023-05-03T15:44:12;18.50;33.00
11647;DHT22;5880;52.342;9.662;2023-05-03T15:46:39;18.50;33.10
11647;DHT22;5880;52.342;9.662;2023-05-03T15:49:05;18.40;33.10
11647;DHT22;5880;52.342;9.662;2023-05-03T15:51:31;18.40;33.20
11647;DHT22;5880;52.342;9.662;2023-05-03T15:53:56;18.30;33.20
11647;DHT22;5880;52.342;9.662;2023-05-03T15:56:22;18.30;32.70
11647;DHT22;5880;52.342;9.662;2023-05-03T15:58:49;18.30;32.80
11647;DHT22;5880;52.342;9.662;2023-05-03T16:01:15;18.30;32.70
11647;DHT22;5880;52.342;9.662;2023-05-03T16:03:41;18.20;32.60
11647;DHT22;5880;52.342;9.662;2023-05-03T16:06:07;18.30;32.60
11647;DHT22;5880;52.342;9.662;2023-05-03T16:08:33;18.20;32.60
11647;DHT22;5880;52.342;9.662;2023-05-03T16:10:59;18.20;33.10
11647;DHT22;5880;52.342;9.662;2023-05-03T16:13:25;18.20;32.80